sensor_id;sensor_type;location;lat;lon;timestamp;P1;durP1;ratioP1;P2;durP2;ratioP2
41739;SDS011;27422;52.444;13.300;2022-10-31T00:00:51;19.08;;;11.48;;
41739;SDS011;27422;52.444;13.300;2022-10-31T00:03:17;19.83;;;11.88;;
41739;SDS011;27422;52.444;13.300;2022-10-31T00:05:46;17.60;;;10.95;;
41739;SDS011;27422;52.444;13.300;2022-10-31T00:08:13;18.02;;;11.27;;
41739;SDS011;27422;52.444;13.300;2022-10-31T00:10:39;19.02;;;10.93;;
41739;SDS011;27422;52.444;13.300;2022-10-31T00:13:06;17.85;;;10.70;;
41739;SDS011;27422;52.444;13.300;2022-10-31T00:15:35;17.20;;;10.45;;
41739;SDS011;27422;52.444;13.300;2022-10-31T00:18:01;18.40;;;11.20;;
41739;SDS011;27422;52.444;13.300;2022-10-31T00:20:27;19.70;;;10.90;;
41739;SDS011;27422;52.444;13.300;2022-10-31T00:22:52;18.10;;;11.63;;
41739;SDS011;27422;52.444;13.300;2022-10-31T00:25:20;20.23;;;11.02;;
41739;SDS011;27422;52.444;13.300;2022-10-31T00:27:45;17.50;;;11.25;;
41739;SDS011;27422;52.444;13.300;2022-10-31T00:30:11;19.92;;;12.63;;
41739;SDS011;27422;52.444;13.300;2022-10-31T00:32:39;19.15;;;11.48;;
41739;SDS011;27422;52.444;13.300;2022-10-31T00:35:05;20.23;;;11.73;;
41739;SDS011;27422;52.444;13.300;2022-10-31T00:37:30;20.48;;;12.07;;
41739;SDS011;27422;52.444;13.300;2022-10-31T00:39:56;16.98;;;11.63;;
41739;SDS011;27422;52.444;13.300;2022-10-31T00:42:21;20.02;;;11.68;;
41739;SDS011;27422;52.444;13.300;2022-10-31T00:44:47;20.58;;;11.57;;
41739;SDS011;27422;52.444;13.300;2022-10-31T00:47:12;18.42;;;11.25;;
41739;SDS011;27422;52.444;13.300;2022-10-31T00:49:38;20.65;;;11.95;;
41739;SDS011;27422;52.444;13.300;2022-10-31T00:52:03;19.58;;;11.27;;
41739;SDS011;27422;52.444;13.300;2022-10-31T00:54:29;18.80;;;11.48;;
41739;SDS011;27422;52.444;13.300;2022-10-31T00:56:56;19.20;;;11.37;;
41739;SDS011;27422;52.444;13.300;2022-10-31T00:59:22;19.13;;;11.68;;
41739;SDS011;27422;52.444;13.300;2022-10-31T01:01:47;17.27;;;11.38;;
41739;SDS011;27422;52.444;13.300;2022-10-31T01:04:12;17.33;;;11.77;;
41739;SDS011;27422;52.444;13.300;2022-10-31T01:06:38;17.08;;;11.07;;
41739;SDS011;27422;52.444;13.300;2022-10-31T01:09:03;15.68;;;10.55;;
41739;SDS011;27422;52.444;13.300;2022-10-31T01:11:29;15.77;;;10.43;;
41739;SDS011;27422;52.444;13.300;2022-10-31T01:13:54;17.23;;;10.10;;
41739;SDS011;27422;52.444;13.300;2022-10-31T01:16:21;16.52;;;10.60;;
41739;SDS011;27422;52.444;13.300;2022-10-31T01:18:48;16.17;;;10.20;;
41739;SDS011;27422;52.444;13.300;2022-10-31T01:21:15;16.45;;;10.00;;
41739;SDS011;27422;52.444;13.300;2022-10-31T01:23:52;15.48;;;9.93;;
41739;SDS011;27422;52.444;13.300;2022-10-31T01:28:51;18.33;;;10.73;;
41739;SDS011;27422;52.444;13.300;2022-10-31T01:31:19;17.80;;;11.38;;
41739;SDS011;27422;52.444;13.300;2022-10-31T01:33:49;15.70;;;10.15;;
41739;SDS011;27422;52.444;13.300;2022-10-31T01:36:16;19.88;;;10.45;;
41739;SDS011;27422;52.444;13.300;2022-10-31T01:38:44;17.50;;;10.32;;
41739;SDS011;27422;52.444;13.300;2022-10-31T01:41:11;13.80;;;9.50;;
41739;SDS011;27422;52.444;13.300;2022-10-31T01:49:13;17.08;;;10.15;;
41739;SDS011;27422;52.444;13.300;2022-10-31T01:51:44;16.80;;;10.10;;
41739;SDS011;27422;52.444;13.300;2022-10-31T01:54:12;18.38;;;10.43;;
41739;SDS011;27422;52.444;13.300;2022-10-31T01:56:41;14.55;;;9.95;;
41739;SDS011;27422;52.444;13.300;2022-10-31T01:59:08;18.15;;;11.27;;
41739;SDS011;27422;52.444;13.300;2022-10-31T02:01:35;17.83;;;11.55;;
41739;SDS011;27422;52.444;13.300;2022-10-31T02:04:02;14.60;;;10.25;;
41739;SDS011;27422;52.444;13.300;2022-10-31T02:06:33;15.98;;;10.70;;
41739;SDS011;27422;52.444;13.300;2022-10-31T02:09:08;16.45;;;10.57;;
41739;SDS011;27422;52.444;13.300;2022-10-31T02:11:34;17.65;;;10.93;;
41739;SDS011;27422;52.444;13.300;2022-10-31T02:14:00;17.58;;;11.43;;
41739;SDS011;27422;52.444;13.300;2022-10-31T02:16:27;18.48;;;9.98;;
41739;SDS011;27422;52.444;13.300;2022-10-31T02:18:52;18.50;;;10.70;;
41739;SDS011;27422;52.444;13.300;2022-10-31T02:32:20;16.58;;;10.00;;
41739;SDS011;27422;52.444;13.300;2022-10-31T02:45:50;15.90;;;10.25;;
41739;SDS011;27422;52.444;13.300;2022-10-31T02:48:48;16.52;;;10.45;;
41739;SDS011;27422;52.444;13.300;2022-10-31T02:53:41;22.00;;;10.73;;
41739;SDS011;27422;52.444;13.300;2022-10-31T02:58:46;18.80;;;10.82;;
41739;SDS011;27422;52.444;13.300;2022-10-31T03:04:01;17.02;;;10.35;;
41739;SDS011;27422;52.444;13.300;2022-10-31T03:11:58;19.40;;;11.55;;
41739;SDS011;27422;52.444;13.300;2022-10-31T03:14:26;15.30;;;10.02;;
41739;SDS011;27422;52.444;13.300;2022-10-31T03:17:01;18.23;;;11.30;;
41739;SDS011;27422;52.444;13.300;2022-10-31T03:19:29;17.70;;;10.90;;
41739;SDS011;27422;52.444;13.300;2022-10-31T03:22:12;16.65;;;11.00;;
41739;SDS011;27422;52.444;13.300;2022-10-31T03:24:41;17.05;;;11.00;;
41739;SDS011;27422;52.444;13.300;2022-10-31T03:27:08;19.02;;;10.15;;
41739;SDS011;27422;52.444;13.300;2022-10-31T03:29:36;16.52;;;10.50;;
41739;SDS011;27422;52.444;13.300;2022-10-31T03:32:03;17.27;;;10.27;;
41739;SDS011;27422;52.444;13.300;2022-10-31T03:34:35;15.48;;;10.20;;
41739;SDS011;27422;52.444;13.300;2022-10-31T03:37:02;14.55;;;9.90;;
41739;SDS011;27422;52.444;13.300;2022-10-31T03:39:30;17.73;;;9.10;;
41739;SDS011;27422;52.444;13.300;2022-10-31T03:42:00;17.90;;;10.18;;
41739;SDS011;27422;52.444;13.300;2022-10-31T03:44:29;18.88;;;10.70;;
41739;SDS011;27422;52.444;13.300;2022-10-31T03:46:57;17.23;;;10.18;;
41739;SDS011;27422;52.444;13.300;2022-10-31T03:49:25;14.85;;;9.88;;
41739;SDS011;27422;52.444;13.300;2022-10-31T03:51:55;16.23;;;10.18;;
41739;SDS011;27422;52.444;13.300;2022-10-31T03:57:22;19.02;;;10.23;;
41739;SDS011;27422;52.444;13.300;2022-10-31T04:00:10;14.93;;;9.98;;
41739;SDS011;27422;52.444;13.300;2022-10-31T04:02:38;16.35;;;9.68;;
41739;SDS011;27422;52.444;13.300;2022-10-31T04:05:07;14.95;;;9.43;;
41739;SDS011;27422;52.444;13.300;2022-10-31T04:07:34;18.92;;;10.10;;
41739;SDS011;27422;52.444;13.300;2022-10-31T04:10:04;16.90;;;10.32;;
41739;SDS011;27422;52.444;13.300;2022-10-31T04:12:33;15.52;;;9.13;;
41739;SDS011;27422;52.444;13.300;2022-10-31T04:14:59;14.35;;;9.90;;
41739;SDS011;27422;52.444;13.300;2022-10-31T04:17:27;14.95;;;9.75;;
41739;SDS011;27422;52.444;13.300;2022-10-31T04:19:54;14.52;;;9.60;;
41739;SDS011;27422;52.444;13.300;2022-10-31T04:22:20;17.17;;;9.93;;
41739;SDS011;27422;52.444;13.300;2022-10-31T04:24:45;17.77;;;9.57;;
41739;SDS011;27422;52.444;13.300;2022-10-31T04:27:10;16.85;;;9.48;;
41739;SDS011;27422;52.444;13.300;2022-10-31T04:29:36;17.58;;;10.13;;
41739;SDS011;27422;52.444;13.300;2022-10-31T04:32:01;16.10;;;9.35;;
41739;SDS011;27422;52.444;13.300;2022-10-31T04:34:26;17.98;;;9.55;;
41739;SDS011;27422;52.444;13.300;2022-10-31T04:36:52;14.40;;;8.55;;
41739;SDS011;27422;52.444;13.300;2022-10-31T04:39:17;15.57;;;8.82;;
41739;SDS011;27422;52.444;13.300;2022-10-31T04:41:45;15.20;;;9.07;;
41739;SDS011;27422;52.444;13.300;2022-10-31T04:44:11;15.05;;;9.10;;
41739;SDS011;27422;52.444;13.300;2022-10-31T04:46:36;13.98;;;8.60;;
41739;SDS011;27422;52.444;13.300;2022-10-31T04:49:01;14.98;;;9.68;;
41739;SDS011;27422;52.444;13.300;2022-10-31T04:51:27;14.27;;;8.90;;
41739;SDS011;27422;52.444;13.300;2022-10-31T04:53:52;13.80;;;9.70;;
41739;SDS011;27422;52.444;13.300;2022-10-31T04:56:18;16.02;;;9.45;;
41739;SDS011;27422;52.444;13.300;2022-10-31T04:58:43;13.75;;;9.32;;
41739;SDS011;27422;52.444;13.300;2022-10-31T05:01:08;14.68;;;8.85;;
41739;SDS011;27422;52.444;13.300;2022-10-31T05:03:34;15.00;;;8.88;;
41739;SDS011;27422;52.444;13.300;2022-10-31T05:05:59;15.32;;;9.80;;
41739;SDS011;27422;52.444;13.300;2022-10-31T05:08:24;12.80;;;8.52;;
41739;SDS011;27422;52.444;13.300;2022-10-31T05:10:50;13.93;;;8.48;;
41739;SDS011;27422;52.444;13.300;2022-10-31T05:13:16;11.88;;;7.90;;
41739;SDS011;27422;52.444;13.300;2022-10-31T05:15:42;14.05;;;8.95;;
41739;SDS011;27422;52.444;13.300;2022-10-31T05:18:07;15.13;;;8.57;;
41739;SDS011;27422;52.444;13.300;2022-10-31T05:20:33;15.00;;;9.18;;
41739;SDS011;27422;52.444;13.300;2022-10-31T05:22:59;16.35;;;8.73;;
41739;SDS011;27422;52.444;13.300;2022-10-31T05:25:25;15.27;;;8.90;;
41739;SDS011;27422;52.444;13.300;2022-10-31T05:27:52;14.82;;;8.75;;
41739;SDS011;27422;52.444;13.300;2022-10-31T05:30:20;14.63;;;8.90;;
41739;SDS011;27422;52.444;13.300;2022-10-31T05:32:48;16.23;;;9.07;;
41739;SDS011;27422;52.444;13.300;2022-10-31T05:35:21;12.68;;;8.38;;
41739;SDS011;27422;52.444;13.300;2022-10-31T05:37:49;15.65;;;8.15;;
41739;SDS011;27422;52.444;13.300;2022-10-31T05:40:15;18.92;;;10.77;;
41739;SDS011;27422;52.444;13.300;2022-10-31T05:42:42;15.93;;;9.95;;
41739;SDS011;27422;52.444;13.300;2022-10-31T05:45:09;17.35;;;10.02;;
41739;SDS011;27422;52.444;13.300;2022-10-31T05:47:35;15.25;;;8.88;;
41739;SDS011;27422;52.444;13.300;2022-10-31T05:50:01;16.95;;;9.35;;
41739;SDS011;27422;52.444;13.300;2022-10-31T05:52:26;16.85;;;8.88;;
41739;SDS011;27422;52.444;13.300;2022-10-31T05:54:52;16.33;;;9.65;;
41739;SDS011;27422;52.444;13.300;2022-10-31T05:57:22;14.82;;;8.85;;
41739;SDS011;27422;52.444;13.300;2022-10-31T05:59:47;15.38;;;8.90;;
41739;SDS011;27422;52.444;13.300;2022-10-31T06:02:13;13.85;;;8.57;;
41739;SDS011;27422;52.444;13.300;2022-10-31T06:04:38;15.85;;;9.20;;
41739;SDS011;27422;52.444;13.300;2022-10-31T06:07:03;16.80;;;9.43;;
41739;SDS011;27422;52.444;13.300;2022-10-31T06:09:29;12.73;;;8.35;;
41739;SDS011;27422;52.444;13.300;2022-10-31T06:11:54;13.25;;;8.60;;
41739;SDS011;27422;52.444;13.300;2022-10-31T06:14:20;15.98;;;8.90;;
41739;SDS011;27422;52.444;13.300;2022-10-31T06:16:45;13.82;;;8.32;;
41739;SDS011;27422;52.444;13.300;2022-10-31T06:19:10;16.63;;;8.88;;
41739;SDS011;27422;52.444;13.300;2022-10-31T06:21:36;18.25;;;9.43;;
41739;SDS011;27422;52.444;13.300;2022-10-31T06:24:01;15.60;;;9.32;;
41739;SDS011;27422;52.444;13.300;2022-10-31T06:26:26;15.18;;;8.48;;
41739;SDS011;27422;52.444;13.300;2022-10-31T06:28:52;15.40;;;8.85;;
41739;SDS011;27422;52.444;13.300;2022-10-31T06:31:17;12.20;;;8.52;;
41739;SDS011;27422;52.444;13.300;2022-10-31T06:33:42;13.43;;;8.73;;
41739;SDS011;27422;52.444;13.300;2022-10-31T06:36:08;14.00;;;8.50;;
41739;SDS011;27422;52.444;13.300;2022-10-31T06:38:34;11.85;;;8.35;;
41739;SDS011;27422;52.444;13.300;2022-10-31T06:41:03;16.33;;;8.30;;
41739;SDS011;27422;52.444;13.300;2022-10-31T06:43:29;16.27;;;8.50;;
41739;SDS011;27422;52.444;13.300;2022-10-31T06:45:55;16.52;;;9.25;;
41739;SDS011;27422;52.444;13.300;2022-10-31T06:48:20;14.65;;;9.10;;
41739;SDS011;27422;52.444;13.300;2022-10-31T06:50:46;21.08;;;10.82;;
41739;SDS011;27422;52.444;13.300;2022-10-31T06:53:11;15.90;;;9.10;;
41739;SDS011;27422;52.444;13.300;2022-10-31T06:55:39;15.15;;;8.85;;
41739;SDS011;27422;52.444;13.300;2022-10-31T06:58:05;15.80;;;9.23;;
41739;SDS011;27422;52.444;13.300;2022-10-31T07:00:30;15.35;;;8.80;;
41739;SDS011;27422;52.444;13.300;2022-10-31T07:02:56;13.55;;;8.05;;
41739;SDS011;27422;52.444;13.300;2022-10-31T07:05:31;13.88;;;8.80;;
41739;SDS011;27422;52.444;13.300;2022-10-31T07:07:58;16.33;;;8.60;;
41739;SDS011;27422;52.444;13.300;2022-10-31T07:10:25;14.52;;;8.77;;
41739;SDS011;27422;52.444;13.300;2022-10-31T07:12:55;15.60;;;8.98;;
41739;SDS011;27422;52.444;13.300;2022-10-31T07:15:25;21.05;;;9.45;;
41739;SDS011;27422;52.444;13.300;2022-10-31T07:17:51;17.10;;;8.88;;
41739;SDS011;27422;52.444;13.300;2022-10-31T07:20:17;14.82;;;8.63;;
41739;SDS011;27422;52.444;13.300;2022-10-31T07:22:43;15.13;;;9.32;;
41739;SDS011;27422;52.444;13.300;2022-10-31T07:25:09;15.77;;;9.30;;
41739;SDS011;27422;52.444;13.300;2022-10-31T07:27:37;19.25;;;9.63;;
41739;SDS011;27422;52.444;13.300;2022-10-31T07:30:03;15.35;;;8.27;;
41739;SDS011;27422;52.444;13.300;2022-10-31T07:35:08;15.75;;;8.35;;
41739;SDS011;27422;52.444;13.300;2022-10-31T07:37:36;13.45;;;8.02;;
41739;SDS011;27422;52.444;13.300;2022-10-31T07:40:02;12.55;;;8.18;;
41739;SDS011;27422;52.444;13.300;2022-10-31T07:42:28;16.67;;;9.07;;
41739;SDS011;27422;52.444;13.300;2022-10-31T07:44:54;15.25;;;8.43;;
41739;SDS011;27422;52.444;13.300;2022-10-31T07:47:19;17.17;;;8.82;;
41739;SDS011;27422;52.444;13.300;2022-10-31T07:49:45;16.00;;;8.25;;
41739;SDS011;27422;52.444;13.300;2022-10-31T07:52:10;11.43;;;7.57;;
41739;SDS011;27422;52.444;13.300;2022-10-31T07:54:35;11.90;;;7.55;;
41739;SDS011;27422;52.444;13.300;2022-10-31T07:57:01;14.60;;;7.57;;
41739;SDS011;27422;52.444;13.300;2022-10-31T07:59:26;13.65;;;7.72;;
41739;SDS011;27422;52.444;13.300;2022-10-31T08:01:52;14.90;;;8.18;;
41739;SDS011;27422;52.444;13.300;2022-10-31T08:04:22;12.38;;;7.38;;
41739;SDS011;27422;52.444;13.300;2022-10-31T08:06:49;14.88;;;7.45;;
41739;SDS011;27422;52.444;13.300;2022-10-31T08:09:15;15.88;;;7.72;;
41739;SDS011;27422;52.444;13.300;2022-10-31T08:11:40;15.65;;;9.25;;
41739;SDS011;27422;52.444;13.300;2022-10-31T08:14:05;15.27;;;8.75;;
41739;SDS011;27422;52.444;13.300;2022-10-31T08:16:31;17.05;;;8.80;;
41739;SDS011;27422;52.444;13.300;2022-10-31T08:18:56;20.73;;;9.25;;
41739;SDS011;27422;52.444;13.300;2022-10-31T08:21:22;17.73;;;8.95;;
41739;SDS011;27422;52.444;13.300;2022-10-31T08:23:47;17.17;;;9.68;;
41739;SDS011;27422;52.444;13.300;2022-10-31T08:26:13;19.13;;;9.88;;
41739;SDS011;27422;52.444;13.300;2022-10-31T08:28:38;17.25;;;9.70;;
41739;SDS011;27422;52.444;13.300;2022-10-31T08:31:04;14.07;;;9.65;;
41739;SDS011;27422;52.444;13.300;2022-10-31T08:33:30;17.05;;;9.38;;
41739;SDS011;27422;52.444;13.300;2022-10-31T08:35:57;16.65;;;9.25;;
41739;SDS011;27422;52.444;13.300;2022-10-31T08:38:23;13.93;;;8.40;;
41739;SDS011;27422;52.444;13.300;2022-10-31T08:40:48;17.95;;;9.98;;
41739;SDS011;27422;52.444;13.300;2022-10-31T08:43:15;17.23;;;9.52;;
41739;SDS011;27422;52.444;13.300;2022-10-31T08:45:41;18.83;;;9.55;;
41739;SDS011;27422;52.444;13.300;2022-10-31T08:48:09;17.65;;;9.73;;
41739;SDS011;27422;52.444;13.300;2022-10-31T08:50:40;15.05;;;9.43;;
41739;SDS011;27422;52.444;13.300;2022-10-31T08:55:42;17.70;;;10.05;;
41739;SDS011;27422;52.444;13.300;2022-10-31T08:58:26;19.02;;;10.77;;
41739;SDS011;27422;52.444;13.300;2022-10-31T09:00:52;17.83;;;10.02;;
41739;SDS011;27422;52.444;13.300;2022-10-31T09:03:25;18.08;;;10.27;;
41739;SDS011;27422;52.444;13.300;2022-10-31T09:05:56;19.48;;;10.57;;
41739;SDS011;27422;52.444;13.300;2022-10-31T09:08:25;16.48;;;10.73;;
41739;SDS011;27422;52.444;13.300;2022-10-31T09:10:55;18.70;;;11.05;;
41739;SDS011;27422;52.444;13.300;2022-10-31T09:15:47;19.00;;;10.57;;
41739;SDS011;27422;52.444;13.300;2022-10-31T09:18:14;20.83;;;10.65;;
41739;SDS011;27422;52.444;13.300;2022-10-31T09:20:41;17.67;;;11.88;;
41739;SDS011;27422;52.444;13.300;2022-10-31T09:23:25;18.73;;;11.38;;
41739;SDS011;27422;52.444;13.300;2022-10-31T09:25:51;18.33;;;10.65;;
41739;SDS011;27422;52.444;13.300;2022-10-31T09:28:19;19.05;;;11.60;;
41739;SDS011;27422;52.444;13.300;2022-10-31T09:33:11;18.13;;;11.15;;
41739;SDS011;27422;52.444;13.300;2022-10-31T09:35:37;19.25;;;11.13;;
41739;SDS011;27422;52.444;13.300;2022-10-31T09:38:04;19.33;;;10.88;;
41739;SDS011;27422;52.444;13.300;2022-10-31T09:40:40;20.55;;;11.25;;
41739;SDS011;27422;52.444;13.300;2022-10-31T09:43:29;21.75;;;11.65;;
41739;SDS011;27422;52.444;13.300;2022-10-31T09:46:11;19.02;;;10.35;;
41739;SDS011;27422;52.444;13.300;2022-10-31T09:51:40;19.23;;;10.85;;
41739;SDS011;27422;52.444;13.300;2022-10-31T09:54:18;21.55;;;11.55;;
41739;SDS011;27422;52.444;13.300;2022-10-31T09:56:46;17.88;;;10.85;;
41739;SDS011;27422;52.444;13.300;2022-10-31T09:59:13;20.15;;;10.77;;
41739;SDS011;27422;52.444;13.300;2022-10-31T10:02:01;18.88;;;11.15;;
41739;SDS011;27422;52.444;13.300;2022-10-31T10:07:24;20.38;;;10.82;;
41739;SDS011;27422;52.444;13.300;2022-10-31T10:18:08;19.30;;;11.55;;
41739;SDS011;27422;52.444;13.300;2022-10-31T10:20:56;18.23;;;10.43;;
41739;SDS011;27422;52.444;13.300;2022-10-31T10:26:30;19.48;;;11.48;;
41739;SDS011;27422;52.444;13.300;2022-10-31T10:29:01;19.02;;;11.30;;
41739;SDS011;27422;52.444;13.300;2022-10-31T10:31:33;19.80;;;10.77;;
41739;SDS011;27422;52.444;13.300;2022-10-31T10:36:46;17.63;;;10.27;;
41739;SDS011;27422;52.444;13.300;2022-10-31T10:39:27;19.35;;;10.18;;
41739;SDS011;27422;52.444;13.300;2022-10-31T10:41:57;16.95;;;10.38;;
41739;SDS011;27422;52.444;13.300;2022-10-31T10:44:48;15.88;;;9.88;;
41739;SDS011;27422;52.444;13.300;2022-10-31T10:47:36;17.30;;;10.57;;
41739;SDS011;27422;52.444;13.300;2022-10-31T10:55:29;19.73;;;11.07;;
41739;SDS011;27422;52.444;13.300;2022-10-31T10:58:03;19.70;;;10.55;;
41739;SDS011;27422;52.444;13.300;2022-10-31T11:00:35;17.60;;;9.48;;
41739;SDS011;27422;52.444;13.300;2022-10-31T11:03:01;22.65;;;9.85;;
41739;SDS011;27422;52.444;13.300;2022-10-31T11:05:30;16.60;;;9.80;;
41739;SDS011;27422;52.444;13.300;2022-10-31T11:07:59;15.45;;;9.30;;
41739;SDS011;27422;52.444;13.300;2022-10-31T11:10:25;15.32;;;9.30;;
41739;SDS011;27422;52.444;13.300;2022-10-31T11:15:36;14.52;;;8.75;;
41739;SDS011;27422;52.444;13.300;2022-10-31T11:18:19;14.45;;;8.40;;
41739;SDS011;27422;52.444;13.300;2022-10-31T11:20:50;15.75;;;8.98;;
41739;SDS011;27422;52.444;13.300;2022-10-31T11:23:18;15.40;;;8.05;;
41739;SDS011;27422;52.444;13.300;2022-10-31T11:25:48;14.13;;;7.82;;
41739;SDS011;27422;52.444;13.300;2022-10-31T11:28:31;14.30;;;7.50;;
41739;SDS011;27422;52.444;13.300;2022-10-31T11:31:05;12.88;;;7.22;;
41739;SDS011;27422;52.444;13.300;2022-10-31T11:33:48;12.20;;;7.07;;
41739;SDS011;27422;52.444;13.300;2022-10-31T11:36:27;11.23;;;7.07;;
41739;SDS011;27422;52.444;13.300;2022-10-31T11:38:58;11.38;;;6.63;;
41739;SDS011;27422;52.444;13.300;2022-10-31T11:41:25;11.48;;;6.65;;
41739;SDS011;27422;52.444;13.300;2022-10-31T11:43:57;13.93;;;7.18;;
41739;SDS011;27422;52.444;13.300;2022-10-31T11:46:32;12.10;;;7.28;;
41739;SDS011;27422;52.444;13.300;2022-10-31T11:48:59;15.55;;;7.75;;
41739;SDS011;27422;52.444;13.300;2022-10-31T11:51:26;13.25;;;8.23;;
41739;SDS011;27422;52.444;13.300;2022-10-31T11:53:55;11.55;;;6.70;;
41739;SDS011;27422;52.444;13.300;2022-10-31T11:56:23;12.27;;;6.55;;
41739;SDS011;27422;52.444;13.300;2022-10-31T11:58:58;11.88;;;7.45;;
41739;SDS011;27422;52.444;13.300;2022-10-31T12:01:28;13.05;;;6.90;;
41739;SDS011;27422;52.444;13.300;2022-10-31T12:03:59;17.73;;;7.20;;
41739;SDS011;27422;52.444;13.300;2022-10-31T12:06:35;14.80;;;6.75;;
41739;SDS011;27422;52.444;13.300;2022-10-31T12:09:01;11.60;;;7.30;;
41739;SDS011;27422;52.444;13.300;2022-10-31T12:12:08;14.75;;;8.13;;
41739;SDS011;27422;52.444;13.300;2022-10-31T12:14:47;11.25;;;7.22;;
41739;SDS011;27422;52.444;13.300;2022-10-31T12:17:31;15.13;;;8.30;;
41739;SDS011;27422;52.444;13.300;2022-10-31T12:20:06;12.13;;;7.30;;
41739;SDS011;27422;52.444;13.300;2022-10-31T12:28:03;35.47;;;20.52;;
41739;SDS011;27422;52.444;13.300;2022-10-31T12:46:30;23.52;;;12.60;;
41739;SDS011;27422;52.444;13.300;2022-10-31T12:59:53;16.57;;;9.83;;
41739;SDS011;27422;52.444;13.300;2022-10-31T13:02:42;16.45;;;9.57;;
41739;SDS011;27422;52.444;13.300;2022-10-31T13:05:41;16.00;;;9.32;;
41739;SDS011;27422;52.444;13.300;2022-10-31T13:08:14;13.63;;;9.43;;
41739;SDS011;27422;52.444;13.300;2022-10-31T13:10:43;17.00;;;8.27;;
41739;SDS011;27422;52.444;13.300;2022-10-31T13:13:15;17.58;;;8.77;;
41739;SDS011;27422;52.444;13.300;2022-10-31T13:15:51;18.80;;;8.85;;
41739;SDS011;27422;52.444;13.300;2022-10-31T13:20:55;16.38;;;8.70;;
41739;SDS011;27422;52.444;13.300;2022-10-31T13:23:29;16.45;;;8.40;;
41739;SDS011;27422;52.444;13.300;2022-10-31T13:25:57;16.48;;;9.27;;
41739;SDS011;27422;52.444;13.300;2022-10-31T13:33:33;14.85;;;8.50;;
41739;SDS011;27422;52.444;13.300;2022-10-31T13:38:54;13.40;;;7.88;;
41739;SDS011;27422;52.444;13.300;2022-10-31T13:41:48;14.57;;;8.32;;
41739;SDS011;27422;52.444;13.300;2022-10-31T13:44:22;15.82;;;9.07;;
41739;SDS011;27422;52.444;13.300;2022-10-31T13:46:50;19.17;;;10.40;;
41739;SDS011;27422;52.444;13.300;2022-10-31T13:52:04;18.10;;;10.15;;
41739;SDS011;27422;52.444;13.300;2022-10-31T13:54:43;21.50;;;11.23;;
41739;SDS011;27422;52.444;13.300;2022-10-31T13:57:21;18.25;;;11.07;;
41739;SDS011;27422;52.444;13.300;2022-10-31T13:59:54;19.65;;;11.10;;
41739;SDS011;27422;52.444;13.300;2022-10-31T14:02:31;18.02;;;11.05;;
41739;SDS011;27422;52.444;13.300;2022-10-31T14:05:05;17.92;;;11.18;;
41739;SDS011;27422;52.444;13.300;2022-10-31T14:07:31;22.75;;;12.32;;
41739;SDS011;27422;52.444;13.300;2022-10-31T14:10:19;19.98;;;11.73;;
41739;SDS011;27422;52.444;13.300;2022-10-31T14:13:05;22.27;;;12.75;;
41739;SDS011;27422;52.444;13.300;2022-10-31T14:15:32;23.13;;;12.65;;
41739;SDS011;27422;52.444;13.300;2022-10-31T14:18:00;22.60;;;12.95;;
41739;SDS011;27422;52.444;13.300;2022-10-31T14:28:42;26.13;;;14.93;;
41739;SDS011;27422;52.444;13.300;2022-10-31T14:31:27;28.13;;;15.18;;
41739;SDS011;27422;52.444;13.300;2022-10-31T14:45:25;27.40;;;15.25;;
41739;SDS011;27422;52.444;13.300;2022-10-31T14:50:52;25.88;;;13.63;;
41739;SDS011;27422;52.444;13.300;2022-10-31T14:56:10;28.20;;;15.95;;
41739;SDS011;27422;52.444;13.300;2022-10-31T14:58:43;31.88;;;16.73;;
41739;SDS011;27422;52.444;13.300;2022-10-31T15:01:48;33.35;;;18.13;;
41739;SDS011;27422;52.444;13.300;2022-10-31T15:04:07;31.98;;;17.63;;
41739;SDS011;27422;52.444;13.300;2022-10-31T15:06:45;36.45;;;19.25;;
41739;SDS011;27422;52.444;13.300;2022-10-31T15:09:25;33.97;;;18.65;;
41739;SDS011;27422;52.444;13.300;2022-10-31T15:11:50;32.45;;;17.73;;
41739;SDS011;27422;52.444;13.300;2022-10-31T15:14:29;34.22;;;18.17;;
41739;SDS011;27422;52.444;13.300;2022-10-31T15:16:55;32.33;;;17.67;;
41739;SDS011;27422;52.444;13.300;2022-10-31T15:19:26;36.00;;;19.27;;
41739;SDS011;27422;52.444;13.300;2022-10-31T15:21:53;35.75;;;18.73;;
41739;SDS011;27422;52.444;13.300;2022-10-31T15:24:19;37.10;;;19.63;;
41739;SDS011;27422;52.444;13.300;2022-10-31T15:26:47;33.47;;;19.38;;
41739;SDS011;27422;52.444;13.300;2022-10-31T15:31:53;35.58;;;18.85;;
41739;SDS011;27422;52.444;13.300;2022-10-31T15:34:38;39.75;;;20.25;;
41739;SDS011;27422;52.444;13.300;2022-10-31T15:37:12;37.42;;;19.58;;
41739;SDS011;27422;52.444;13.300;2022-10-31T15:39:41;41.33;;;20.63;;
41739;SDS011;27422;52.444;13.300;2022-10-31T15:45:15;39.03;;;20.63;;
41739;SDS011;27422;52.444;13.300;2022-10-31T15:47:45;41.95;;;20.95;;
41739;SDS011;27422;52.444;13.300;2022-10-31T15:52:52;41.15;;;20.92;;
41739;SDS011;27422;52.444;13.300;2022-10-31T15:55:19;37.92;;;21.77;;
41739;SDS011;27422;52.444;13.300;2022-10-31T16:00:29;41.05;;;21.98;;
41739;SDS011;27422;52.444;13.300;2022-10-31T16:03:09;41.80;;;21.42;;
41739;SDS011;27422;52.444;13.300;2022-10-31T16:05:50;44.60;;;23.33;;
41739;SDS011;27422;52.444;13.300;2022-10-31T16:10:55;52.55;;;25.08;;
41739;SDS011;27422;52.444;13.300;2022-10-31T16:13:38;48.75;;;24.05;;
41739;SDS011;27422;52.444;13.300;2022-10-31T16:16:17;50.17;;;23.58;;
41739;SDS011;27422;52.444;13.300;2022-10-31T16:18:45;48.58;;;23.45;;
41739;SDS011;27422;52.444;13.300;2022-10-31T16:21:11;50.03;;;24.85;;
41739;SDS011;27422;52.444;13.300;2022-10-31T16:23:38;57.25;;;25.40;;
41739;SDS011;27422;52.444;13.300;2022-10-31T16:26:09;55.50;;;26.38;;
41739;SDS011;27422;52.444;13.300;2022-10-31T16:28:35;54.50;;;26.73;;
41739;SDS011;27422;52.444;13.300;2022-10-31T16:31:00;59.80;;;26.80;;
41739;SDS011;27422;52.444;13.300;2022-10-31T16:33:30;54.72;;;25.40;;
41739;SDS011;27422;52.444;13.300;2022-10-31T16:36:13;58.15;;;26.48;;
41739;SDS011;27422;52.444;13.300;2022-10-31T16:38:52;49.80;;;26.95;;
41739;SDS011;27422;52.444;13.300;2022-10-31T16:41:21;56.28;;;27.50;;
41739;SDS011;27422;52.444;13.300;2022-10-31T16:43:48;51.58;;;25.60;;
41739;SDS011;27422;52.444;13.300;2022-10-31T16:46:18;57.33;;;26.58;;
41739;SDS011;27422;52.444;13.300;2022-10-31T16:48:47;57.70;;;26.92;;
41739;SDS011;27422;52.444;13.300;2022-10-31T16:51:12;56.78;;;26.83;;
41739;SDS011;27422;52.444;13.300;2022-10-31T16:53:37;62.88;;;28.85;;
41739;SDS011;27422;52.444;13.300;2022-10-31T16:56:03;59.83;;;27.98;;
41739;SDS011;27422;52.444;13.300;2022-10-31T16:58:32;63.03;;;28.50;;
41739;SDS011;27422;52.444;13.300;2022-10-31T17:00:59;62.08;;;28.52;;
41739;SDS011;27422;52.444;13.300;2022-10-31T17:03:25;68.18;;;29.23;;
41739;SDS011;27422;52.444;13.300;2022-10-31T17:05:50;66.60;;;28.98;;
41739;SDS011;27422;52.444;13.300;2022-10-31T17:08:15;67.35;;;30.02;;
41739;SDS011;27422;52.444;13.300;2022-10-31T17:10:41;72.28;;;29.25;;
41739;SDS011;27422;52.444;13.300;2022-10-31T17:13:10;66.85;;;29.52;;
41739;SDS011;27422;52.444;13.300;2022-10-31T17:15:42;68.10;;;29.67;;
41739;SDS011;27422;52.444;13.300;2022-10-31T17:18:11;66.10;;;29.13;;